sensor_id;sensor_type;location;lat;lon;timestamp;P1;durP1;ratioP1;P2;durP2;ratioP2
60494;SDS011;46342;49.046;11.920;2023-07-13T00:02:18;3.85;;;2.40;;
60494;SDS011;46342;49.046;11.920;2023-07-13T00:04:44;3.22;;;2.22;;
60494;SDS011;46342;49.046;11.920;2023-07-13T00:07:09;3.05;;;2.20;;
60494;SDS011;46342;49.046;11.920;2023-07-13T00:09:35;2.92;;;2.20;;
60494;SDS011;46342;49.046;11.920;2023-07-13T00:12:01;2.55;;;2.25;;
60494;SDS011;46342;49.046;11.920;2023-07-13T00:14:27;3.40;;;2.40;;
60494;SDS011;46342;49.046;11.920;2023-07-13T00:16:54;3.00;;;2.22;;
60494;SDS011;46342;49.046;11.920;2023-07-13T00:19:20;3.90;;;2.33;;
60494;SDS011;46342;49.046;11.920;2023-07-13T00:21:46;3.83;;;2.17;;
60494;SDS011;46342;49.046;11.920;2023-07-13T00:24:13;3.13;;;2.13;;
60494;SDS011;46342;49.046;11.920;2023-07-13T00:26:41;6.38;;;2.40;;
60494;SDS011;46342;49.046;11.920;2023-07-13T00:29:10;3.25;;;2.47;;
60494;SDS011;46342;49.046;11.920;2023-07-13T00:31:37;2.85;;;2.22;;
60494;SDS011;46342;49.046;11.920;2023-07-13T00:34:02;12.23;;;2.75;;
60494;SDS011;46342;49.046;11.920;2023-07-13T00:36:29;2.78;;;2.55;;
60494;SDS011;46342;49.046;11.920;2023-07-13T00:38:55;3.90;;;3.03;;
60494;SDS011;46342;49.046;11.920;2023-07-13T00:41:21;2.95;;;2.20;;
60494;SDS011;46342;49.046;11.920;2023-07-13T00:43:46;3.30;;;2.40;;
60494;SDS011;46342;49.046;11.920;2023-07-13T00:46:17;7.65;;;2.55;;
60494;SDS011;46342;49.046;11.920;2023-07-13T00:48:45;3.60;;;2.28;;
60494;SDS011;46342;49.046;11.920;2023-07-13T00:51:14;7.35;;;2.78;;
60494;SDS011;46342;49.046;11.920;2023-07-13T00:53:43;2.50;;;2.17;;
60494;SDS011;46342;49.046;11.920;2023-07-13T00:56:09;4.30;;;2.33;;
60494;SDS011;46342;49.046;11.920;2023-07-13T00:58:35;11.13;;;2.63;;
60494;SDS011;46342;49.046;11.920;2023-07-13T01:01:01;4.60;;;2.17;;
60494;SDS011;46342;49.046;11.920;2023-07-13T01:03:26;5.18;;;2.30;;
60494;SDS011;46342;49.046;11.920;2023-07-13T01:05:52;6.85;;;2.60;;
60494;SDS011;46342;49.046;11.920;2023-07-13T01:08:19;4.72;;;2.40;;
60494;SDS011;46342;49.046;11.920;2023-07-13T01:10:56;8.45;;;2.35;;
60494;SDS011;46342;49.046;11.920;2023-07-13T01:13:23;3.73;;;2.10;;
60494;SDS011;46342;49.046;11.920;2023-07-13T01:15:49;6.38;;;2.60;;
60494;SDS011;46342;49.046;11.920;2023-07-13T01:23:24;3.72;;;2.45;;
60494;SDS011;46342;49.046;11.920;2023-07-13T01:25:51;5.55;;;2.78;;
60494;SDS011;46342;49.046;11.920;2023-07-13T01:28:17;5.72;;;2.40;;
60494;SDS011;46342;49.046;11.920;2023-07-13T01:30:44;4.35;;;2.83;;
60494;SDS011;46342;49.046;11.920;2023-07-13T01:33:11;6.00;;;2.67;;
60494;SDS011;46342;49.046;11.920;2023-07-13T01:35:42;6.80;;;3.08;;
60494;SDS011;46342;49.046;11.920;2023-07-13T01:38:08;5.00;;;3.00;;
60494;SDS011;46342;49.046;11.920;2023-07-13T01:40:35;5.70;;;2.88;;
60494;SDS011;46342;49.046;11.920;2023-07-13T01:43:02;4.15;;;2.80;;
60494;SDS011;46342;49.046;11.920;2023-07-13T01:45:28;3.28;;;2.92;;
60494;SDS011;46342;49.046;11.920;2023-07-13T01:47:53;12.52;;;2.95;;
60494;SDS011;46342;49.046;11.920;2023-07-13T01:50:19;6.18;;;2.83;;
60494;SDS011;46342;49.046;11.920;2023-07-13T01:52:45;3.22;;;2.60;;
60494;SDS011;46342;49.046;11.920;2023-07-13T01:55:10;4.50;;;2.53;;
60494;SDS011;46342;49.046;11.920;2023-07-13T01:57:36;5.15;;;3.05;;
60494;SDS011;46342;49.046;11.920;2023-07-13T02:00:03;7.55;;;3.20;;
60494;SDS011;46342;49.046;11.920;2023-07-13T02:02:30;5.28;;;2.72;;
60494;SDS011;46342;49.046;11.920;2023-07-13T02:04:56;6.20;;;2.83;;
60494;SDS011;46342;49.046;11.920;2023-07-13T02:07:21;4.82;;;2.80;;
60494;SDS011;46342;49.046;11.920;2023-07-13T02:09:47;4.07;;;2.65;;
60494;SDS011;46342;49.046;11.920;2023-07-13T02:12:13;5.90;;;2.97;;
60494;SDS011;46342;49.046;11.920;2023-07-13T02:14:38;8.13;;;2.85;;
60494;SDS011;46342;49.046;11.920;2023-07-13T02:17:04;4.80;;;3.00;;
60494;SDS011;46342;49.046;11.920;2023-07-13T02:19:30;3.58;;;2.70;;
60494;SDS011;46342;49.046;11.920;2023-07-13T02:21:56;5.18;;;2.78;;
60494;SDS011;46342;49.046;11.920;2023-07-13T02:24:21;5.75;;;3.35;;
60494;SDS011;46342;49.046;11.920;2023-07-13T02:26:47;4.22;;;3.20;;
60494;SDS011;46342;49.046;11.920;2023-07-13T02:29:13;6.57;;;3.15;;
60494;SDS011;46342;49.046;11.920;2023-07-13T02:31:38;8.23;;;3.13;;
60494;SDS011;46342;49.046;11.920;2023-07-13T02:34:04;5.45;;;3.08;;
60494;SDS011;46342;49.046;11.920;2023-07-13T02:36:30;3.38;;;2.88;;
60494;SDS011;46342;49.046;11.920;2023-07-13T02:38:57;4.65;;;2.70;;
60494;SDS011;46342;49.046;11.920;2023-07-13T02:41:26;4.40;;;3.20;;
60494;SDS011;46342;49.046;11.920;2023-07-13T02:43:51;6.72;;;2.75;;
60494;SDS011;46342;49.046;11.920;2023-07-13T02:46:17;4.75;;;2.67;;
60494;SDS011;46342;49.046;11.920;2023-07-13T02:48:44;3.40;;;2.40;;
60494;SDS011;46342;49.046;11.920;2023-07-13T02:51:10;9.30;;;2.85;;
60494;SDS011;46342;49.046;11.920;2023-07-13T02:53:36;7.38;;;2.92;;
60494;SDS011;46342;49.046;11.920;2023-07-13T02:56:02;2.65;;;1.88;;
60494;SDS011;46342;49.046;11.920;2023-07-13T02:58:29;3.20;;;2.60;;
60494;SDS011;46342;49.046;11.920;2023-07-13T03:00:55;7.07;;;2.40;;
60494;SDS011;46342;49.046;11.920;2023-07-13T03:03:21;6.80;;;2.65;;
60494;SDS011;46342;49.046;11.920;2023-07-13T03:05:46;3.97;;;2.80;;
60494;SDS011;46342;49.046;11.920;2023-07-13T03:08:15;5.30;;;2.63;;
60494;SDS011;46342;49.046;11.920;2023-07-13T03:13:08;7.38;;;2.33;;
60494;SDS011;46342;49.046;11.920;2023-07-13T03:15:34;3.92;;;2.53;;
60494;SDS011;46342;49.046;11.920;2023-07-13T03:17:59;3.47;;;2.60;;
60494;SDS011;46342;49.046;11.920;2023-07-13T03:20:25;4.38;;;2.58;;
60494;SDS011;46342;49.046;11.920;2023-07-13T03:22:51;4.10;;;2.35;;
60494;SDS011;46342;49.046;11.920;2023-07-13T03:25:16;2.42;;;2.22;;
60494;SDS011;46342;49.046;11.920;2023-07-13T03:27:42;10.25;;;2.70;;
60494;SDS011;46342;49.046;11.920;2023-07-13T03:30:08;5.15;;;2.97;;
60494;SDS011;46342;49.046;11.920;2023-07-13T03:32:33;4.63;;;2.40;;
60494;SDS011;46342;49.046;11.920;2023-07-13T03:34:59;6.68;;;2.75;;
60494;SDS011;46342;49.046;11.920;2023-07-13T03:37:25;3.90;;;2.08;;
60494;SDS011;46342;49.046;11.920;2023-07-13T03:39:50;2.80;;;2.33;;
60494;SDS011;46342;49.046;11.920;2023-07-13T03:42:16;4.03;;;2.40;;
60494;SDS011;46342;49.046;11.920;2023-07-13T03:44:41;3.35;;;2.15;;
60494;SDS011;46342;49.046;11.920;2023-07-13T03:47:10;6.43;;;2.50;;
60494;SDS011;46342;49.046;11.920;2023-07-13T03:49:36;3.25;;;2.47;;
60494;SDS011;46342;49.046;11.920;2023-07-13T03:52:02;8.82;;;2.92;;
60494;SDS011;46342;49.046;11.920;2023-07-13T03:54:28;4.65;;;2.40;;
60494;SDS011;46342;49.046;11.920;2023-07-13T03:56:53;3.47;;;2.10;;
60494;SDS011;46342;49.046;11.920;2023-07-13T03:59:20;4.15;;;2.28;;
60494;SDS011;46342;49.046;11.920;2023-07-13T04:01:45;2.63;;;2.10;;
60494;SDS011;46342;49.046;11.920;2023-07-13T04:04:11;9.88;;;2.50;;
60494;SDS011;46342;49.046;11.920;2023-07-13T04:06:36;4.07;;;2.75;;
60494;SDS011;46342;49.046;11.920;2023-07-13T04:09:03;4.28;;;2.50;;
60494;SDS011;46342;49.046;11.920;2023-07-13T04:11:30;3.58;;;2.00;;
60494;SDS011;46342;49.046;11.920;2023-07-13T04:13:57;3.87;;;2.40;;
60494;SDS011;46342;49.046;11.920;2023-07-13T04:16:23;9.55;;;2.30;;
60494;SDS011;46342;49.046;11.920;2023-07-13T04:18:49;2.97;;;2.50;;
60494;SDS011;46342;49.046;11.920;2023-07-13T04:21:16;5.88;;;2.35;;
60494;SDS011;46342;49.046;11.920;2023-07-13T04:23:42;3.58;;;2.22;;
60494;SDS011;46342;49.046;11.920;2023-07-13T04:26:08;4.88;;;2.45;;
60494;SDS011;46342;49.046;11.920;2023-07-13T04:28:34;4.10;;;2.60;;
60494;SDS011;46342;49.046;11.920;2023-07-13T04:31:00;4.32;;;2.33;;
60494;SDS011;46342;49.046;11.920;2023-07-13T04:33:26;6.90;;;2.80;;
60494;SDS011;46342;49.046;11.920;2023-07-13T04:35:53;2.50;;;2.20;;
60494;SDS011;46342;49.046;11.920;2023-07-13T04:38:24;7.82;;;2.53;;
60494;SDS011;46342;49.046;11.920;2023-07-13T04:40:55;3.13;;;2.35;;
60494;SDS011;46342;49.046;11.920;2023-07-13T04:43:22;5.55;;;2.63;;
60494;SDS011;46342;49.046;11.920;2023-07-13T04:45:48;4.13;;;2.20;;
60494;SDS011;46342;49.046;11.920;2023-07-13T04:48:13;4.15;;;2.30;;
60494;SDS011;46342;49.046;11.920;2023-07-13T04:50:39;5.72;;;2.10;;
60494;SDS011;46342;49.046;11.920;2023-07-13T04:53:05;2.33;;;2.08;;
60494;SDS011;46342;49.046;11.920;2023-07-13T04:55:31;3.60;;;2.00;;
60494;SDS011;46342;49.046;11.920;2023-07-13T04:57:57;2.53;;;1.83;;
60494;SDS011;46342;49.046;11.920;2023-07-13T05:00:24;5.28;;;2.17;;
60494;SDS011;46342;49.046;11.920;2023-07-13T05:02:50;2.67;;;2.00;;
60494;SDS011;46342;49.046;11.920;2023-07-13T05:05:16;5.55;;;2.80;;
60494;SDS011;46342;49.046;11.920;2023-07-13T05:07:42;4.60;;;2.08;;
60494;SDS011;46342;49.046;11.920;2023-07-13T05:10:08;14.70;;;2.50;;
60494;SDS011;46342;49.046;11.920;2023-07-13T05:12:34;6.53;;;2.47;;
60494;SDS011;46342;49.046;11.920;2023-07-13T05:14:59;2.20;;;2.00;;
60494;SDS011;46342;49.046;11.920;2023-07-13T05:17:26;2.72;;;1.90;;
60494;SDS011;46342;49.046;11.920;2023-07-13T05:19:51;6.63;;;2.00;;
60494;SDS011;46342;49.046;11.920;2023-07-13T05:22:17;2.75;;;1.92;;
60494;SDS011;46342;49.046;11.920;2023-07-13T05:24:42;3.80;;;1.83;;
60494;SDS011;46342;49.046;11.920;2023-07-13T05:27:08;3.30;;;2.13;;
60494;SDS011;46342;49.046;11.920;2023-07-13T05:29:34;9.65;;;2.50;;
60494;SDS011;46342;49.046;11.920;2023-07-13T05:31:59;4.80;;;2.08;;
60494;SDS011;46342;49.046;11.920;2023-07-13T05:34:25;2.97;;;2.10;;
60494;SDS011;46342;49.046;11.920;2023-07-13T05:36:51;2.78;;;2.05;;
60494;SDS011;46342;49.046;11.920;2023-07-13T05:39:17;3.45;;;2.45;;
60494;SDS011;46342;49.046;11.920;2023-07-13T05:41:43;2.25;;;1.60;;
60494;SDS011;46342;49.046;11.920;2023-07-13T05:44:09;1.95;;;1.67;;
60494;SDS011;46342;49.046;11.920;2023-07-13T05:46:35;4.07;;;1.90;;
60494;SDS011;46342;49.046;11.920;2023-07-13T05:49:00;2.80;;;1.75;;
60494;SDS011;46342;49.046;11.920;2023-07-13T05:51:26;3.97;;;1.38;;
60494;SDS011;46342;49.046;11.920;2023-07-13T05:53:51;2.17;;;1.75;;
60494;SDS011;46342;49.046;11.920;2023-07-13T05:56:17;3.40;;;1.67;;
60494;SDS011;46342;49.046;11.920;2023-07-13T05:58:43;1.52;;;1.42;;
60494;SDS011;46342;49.046;11.920;2023-07-13T06:01:10;1.63;;;1.52;;
60494;SDS011;46342;49.046;11.920;2023-07-13T06:03:37;3.47;;;1.50;;
60494;SDS011;46342;49.046;11.920;2023-07-13T06:06:04;3.67;;;1.48;;
60494;SDS011;46342;49.046;11.920;2023-07-13T06:08:31;4.40;;;1.58;;
60494;SDS011;46342;49.046;11.920;2023-07-13T06:13:54;1.83;;;1.42;;
60494;SDS011;46342;49.046;11.920;2023-07-13T06:16:21;2.70;;;1.40;;
60494;SDS011;46342;49.046;11.920;2023-07-13T06:18:47;4.45;;;1.75;;
60494;SDS011;46342;49.046;11.920;2023-07-13T06:21:14;1.55;;;1.45;;
60494;SDS011;46342;49.046;11.920;2023-07-13T06:23:41;1.83;;;1.30;;
60494;SDS011;46342;49.046;11.920;2023-07-13T06:26:08;3.20;;;1.52;;
60494;SDS011;46342;49.046;11.920;2023-07-13T06:28:34;3.90;;;1.73;;
60494;SDS011;46342;49.046;11.920;2023-07-13T06:31:00;2.00;;;1.58;;
60494;SDS011;46342;49.046;11.920;2023-07-13T06:33:26;2.88;;;1.55;;
60494;SDS011;46342;49.046;11.920;2023-07-13T06:35:52;2.53;;;1.55;;
60494;SDS011;46342;49.046;11.920;2023-07-13T06:38:19;3.88;;;1.95;;
60494;SDS011;46342;49.046;11.920;2023-07-13T06:40:45;4.53;;;1.88;;
60494;SDS011;46342;49.046;11.920;2023-07-13T06:43:11;2.13;;;1.50;;
60494;SDS011;46342;49.046;11.920;2023-07-13T06:45:40;4.80;;;2.15;;
60494;SDS011;46342;49.046;11.920;2023-07-13T06:50:41;3.45;;;1.42;;
60494;SDS011;46342;49.046;11.920;2023-07-13T06:53:07;1.73;;;1.55;;
60494;SDS011;46342;49.046;11.920;2023-07-13T06:55:33;3.10;;;1.50;;
60494;SDS011;46342;49.046;11.920;2023-07-13T06:57:58;2.05;;;1.85;;
60494;SDS011;46342;49.046;11.920;2023-07-13T07:00:24;3.33;;;1.63;;
60494;SDS011;46342;49.046;11.920;2023-07-13T07:02:49;1.50;;;1.40;;
60494;SDS011;46342;49.046;11.920;2023-07-13T07:05:15;2.60;;;1.63;;
60494;SDS011;46342;49.046;11.920;2023-07-13T07:07:41;4.07;;;1.63;;
60494;SDS011;46342;49.046;11.920;2023-07-13T07:10:06;2.58;;;1.60;;
60494;SDS011;46342;49.046;11.920;2023-07-13T07:12:32;3.75;;;2.03;;
60494;SDS011;46342;49.046;11.920;2023-07-13T07:14:58;2.78;;;1.70;;
60494;SDS011;46342;49.046;11.920;2023-07-13T07:17:24;3.95;;;1.58;;
60494;SDS011;46342;49.046;11.920;2023-07-13T07:19:50;2.77;;;2.13;;
60494;SDS011;46342;49.046;11.920;2023-07-13T07:22:18;2.78;;;1.77;;
60494;SDS011;46342;49.046;11.920;2023-07-13T07:24:44;4.97;;;1.70;;
60494;SDS011;46342;49.046;11.920;2023-07-13T07:27:10;2.03;;;1.67;;
60494;SDS011;46342;49.046;11.920;2023-07-13T07:29:36;1.45;;;1.35;;
60494;SDS011;46342;49.046;11.920;2023-07-13T07:32:01;1.98;;;1.40;;
60494;SDS011;46342;49.046;11.920;2023-07-13T07:34:27;3.78;;;1.85;;
60494;SDS011;46342;49.046;11.920;2023-07-13T07:36:53;2.35;;;1.67;;
60494;SDS011;46342;49.046;11.920;2023-07-13T07:39:19;1.38;;;1.27;;
60494;SDS011;46342;49.046;11.920;2023-07-13T07:41:44;2.15;;;1.60;;
60494;SDS011;46342;49.046;11.920;2023-07-13T07:44:10;3.80;;;1.65;;
60494;SDS011;46342;49.046;11.920;2023-07-13T07:46:35;2.35;;;1.52;;
60494;SDS011;46342;49.046;11.920;2023-07-13T07:49:01;1.75;;;1.65;;
60494;SDS011;46342;49.046;11.920;2023-07-13T07:51:27;2.25;;;1.60;;
60494;SDS011;46342;49.046;11.920;2023-07-13T07:53:54;2.45;;;1.40;;
60494;SDS011;46342;49.046;11.920;2023-07-13T07:56:20;1.27;;;1.17;;
60494;SDS011;46342;49.046;11.920;2023-07-13T07:58:45;2.53;;;1.42;;
60494;SDS011;46342;49.046;11.920;2023-07-13T08:01:11;1.75;;;1.30;;
60494;SDS011;46342;49.046;11.920;2023-07-13T08:03:36;1.92;;;1.30;;
60494;SDS011;46342;49.046;11.920;2023-07-13T08:06:02;1.52;;;1.27;;
60494;SDS011;46342;49.046;11.920;2023-07-13T08:08:28;2.38;;;1.52;;
60494;SDS011;46342;49.046;11.920;2023-07-13T08:10:53;2.05;;;1.42;;
60494;SDS011;46342;49.046;11.920;2023-07-13T08:13:19;2.15;;;1.38;;
60494;SDS011;46342;49.046;11.920;2023-07-13T08:15:46;1.45;;;1.23;;
60494;SDS011;46342;49.046;11.920;2023-07-13T08:18:11;1.63;;;1.27;;
60494;SDS011;46342;49.046;11.920;2023-07-13T08:20:40;1.85;;;1.40;;
60494;SDS011;46342;49.046;11.920;2023-07-13T08:23:06;3.15;;;1.70;;
60494;SDS011;46342;49.046;11.920;2023-07-13T08:25:34;1.80;;;1.40;;
60494;SDS011;46342;49.046;11.920;2023-07-13T08:28:00;2.88;;;1.63;;
60494;SDS011;46342;49.046;11.920;2023-07-13T08:30:25;2.83;;;1.30;;
60494;SDS011;46342;49.046;11.920;2023-07-13T08:32:51;1.90;;;1.23;;
60494;SDS011;46342;49.046;11.920;2023-07-13T08:35:17;2.47;;;1.60;;
60494;SDS011;46342;49.046;11.920;2023-07-13T08:37:43;6.07;;;1.75;;
60494;SDS011;46342;49.046;11.920;2023-07-13T08:40:10;8.27;;;1.80;;
60494;SDS011;46342;49.046;11.920;2023-07-13T08:42:38;2.85;;;1.23;;
60494;SDS011;46342;49.046;11.920;2023-07-13T08:48:09;3.22;;;1.58;;
60494;SDS011;46342;49.046;11.920;2023-07-13T08:50:43;2.70;;;1.73;;
60494;SDS011;46342;49.046;11.920;2023-07-13T08:53:18;2.30;;;1.55;;
60494;SDS011;46342;49.046;11.920;2023-07-13T08:55:44;2.08;;;1.40;;
60494;SDS011;46342;49.046;11.920;2023-07-13T08:58:14;2.10;;;1.52;;
60494;SDS011;46342;49.046;11.920;2023-07-13T09:00:50;4.85;;;1.52;;
60494;SDS011;46342;49.046;11.920;2023-07-13T09:03:25;2.58;;;1.55;;
60494;SDS011;46342;49.046;11.920;2023-07-13T09:14:00;4.47;;;1.40;;
60494;SDS011;46342;49.046;11.920;2023-07-13T09:16:51;1.10;;;1.10;;
60494;SDS011;46342;49.046;11.920;2023-07-13T09:19:21;1.73;;;1.20;;
60494;SDS011;46342;49.046;11.920;2023-07-13T09:21:53;1.58;;;1.10;;
60494;SDS011;46342;49.046;11.920;2023-07-13T09:24:26;4.45;;;1.30;;
60494;SDS011;46342;49.046;11.920;2023-07-13T09:27:17;1.98;;;1.10;;
60494;SDS011;46342;49.046;11.920;2023-07-13T09:29:49;2.00;;;1.10;;
60494;SDS011;46342;49.046;11.920;2023-07-13T09:32:33;6.07;;;1.40;;
60494;SDS011;46342;49.046;11.920;2023-07-13T09:34:59;3.92;;;1.45;;
60494;SDS011;46342;49.046;11.920;2023-07-13T09:37:29;7.53;;;0.95;;
60494;SDS011;46342;49.046;11.920;2023-07-13T09:39:57;1.45;;;1.20;;
60494;SDS011;46342;49.046;11.920;2023-07-13T09:42:27;2.80;;;1.20;;
60494;SDS011;46342;49.046;11.920;2023-07-13T09:44:54;1.15;;;0.90;;
60494;SDS011;46342;49.046;11.920;2023-07-13T09:47:25;1.00;;;1.00;;
60494;SDS011;46342;49.046;11.920;2023-07-13T09:50:02;3.13;;;1.10;;
60494;SDS011;46342;49.046;11.920;2023-07-13T09:52:41;1.60;;;1.13;;
60494;SDS011;46342;49.046;11.920;2023-07-13T10:00:24;2.45;;;1.00;;
60494;SDS011;46342;49.046;11.920;2023-07-13T10:03:00;1.30;;;1.00;;
60494;SDS011;46342;49.046;11.920;2023-07-13T10:05:28;1.55;;;1.40;;
60494;SDS011;46342;49.046;11.920;2023-07-13T10:08:10;3.42;;;1.20;;
60494;SDS011;46342;49.046;11.920;2023-07-13T10:10:45;1.10;;;1.00;;
60494;SDS011;46342;49.046;11.920;2023-07-13T10:13:36;1.85;;;1.02;;
60494;SDS011;46342;49.046;11.920;2023-07-13T10:16:06;3.15;;;1.10;;
60494;SDS011;46342;49.046;11.920;2023-07-13T10:18:43;1.30;;;0.88;;
60494;SDS011;46342;49.046;11.920;2023-07-13T10:21:30;1.35;;;0.95;;
60494;SDS011;46342;49.046;11.920;2023-07-13T10:27:05;2.50;;;0.93;;
60494;SDS011;46342;49.046;11.920;2023-07-13T10:29:38;0.80;;;0.80;;
60494;SDS011;46342;49.046;11.920;2023-07-13T10:32:12;2.85;;;1.35;;
60494;SDS011;46342;49.046;11.920;2023-07-13T10:34:38;1.13;;;1.00;;
60494;SDS011;46342;49.046;11.920;2023-07-13T10:37:07;3.25;;;1.27;;
60494;SDS011;46342;49.046;11.920;2023-07-13T10:39:41;2.08;;;1.30;;
60494;SDS011;46342;49.046;11.920;2023-07-13T10:42:08;1.55;;;1.20;;
60494;SDS011;46342;49.046;11.920;2023-07-13T10:44:39;1.25;;;1.00;;
60494;SDS011;46342;49.046;11.920;2023-07-13T10:47:06;0.90;;;0.90;;
60494;SDS011;46342;49.046;11.920;2023-07-13T10:49:36;1.98;;;1.10;;
60494;SDS011;46342;49.046;11.920;2023-07-13T10:52:04;3.40;;;0.90;;
60494;SDS011;46342;49.046;11.920;2023-07-13T10:54:31;1.85;;;0.90;;
60494;SDS011;46342;49.046;11.920;2023-07-13T10:57:33;1.02;;;0.93;;
60494;SDS011;46342;49.046;11.920;2023-07-13T11:02:40;2.72;;;1.00;;
60494;SDS011;46342;49.046;11.920;2023-07-13T11:05:40;1.05;;;0.98;;
60494;SDS011;46342;49.046;11.920;2023-07-13T11:10:56;1.23;;;0.93;;
60494;SDS011;46342;49.046;11.920;2023-07-13T11:21:27;0.90;;;0.90;;
60494;SDS011;46342;49.046;11.920;2023-07-13T11:24:14;1.42;;;1.00;;
60494;SDS011;46342;49.046;11.920;2023-07-13T11:32:24;1.58;;;0.85;;
60494;SDS011;46342;49.046;11.920;2023-07-13T11:34:54;2.17;;;1.25;;
60494;SDS011;46342;49.046;11.920;2023-07-13T11:37:20;0.98;;;0.90;;
60494;SDS011;46342;49.046;11.920;2023-07-13T11:39:47;0.80;;;0.80;;
60494;SDS011;46342;49.046;11.920;2023-07-13T11:42:16;0.82;;;0.80;;
60494;SDS011;46342;49.046;11.920;2023-07-13T11:44:44;1.10;;;0.90;;
60494;SDS011;46342;49.046;11.920;2023-07-13T11:47:17;1.20;;;0.82;;
60494;SDS011;46342;49.046;11.920;2023-07-13T11:49:45;1.58;;;0.85;;
60494;SDS011;46342;49.046;11.920;2023-07-13T11:52:14;2.67;;;0.80;;
60494;SDS011;46342;49.046;11.920;2023-07-13T11:54:52;1.13;;;0.98;;
60494;SDS011;46342;49.046;11.920;2023-07-13T11:57:23;1.77;;;0.93;;
60494;SDS011;46342;49.046;11.920;2023-07-13T11:59:49;1.95;;;1.20;;
60494;SDS011;46342;49.046;11.920;2023-07-13T12:04:49;1.05;;;0.90;;
60494;SDS011;46342;49.046;11.920;2023-07-13T12:07:17;0.85;;;0.77;;
60494;SDS011;46342;49.046;11.920;2023-07-13T12:09:44;0.82;;;0.77;;
60494;SDS011;46342;49.046;11.920;2023-07-13T12:12:14;1.70;;;1.23;;
60494;SDS011;46342;49.046;11.920;2023-07-13T12:14:42;1.25;;;1.00;;
60494;SDS011;46342;49.046;11.920;2023-07-13T12:17:17;1.08;;;0.70;;
60494;SDS011;46342;49.046;11.920;2023-07-13T12:19:45;2.38;;;0.80;;
60494;SDS011;46342;49.046;11.920;2023-07-13T12:22:12;0.80;;;0.80;;
60494;SDS011;46342;49.046;11.920;2023-07-13T12:24:39;2.38;;;0.90;;
60494;SDS011;46342;49.046;11.920;2023-07-13T12:27:06;1.52;;;0.80;;
60494;SDS011;46342;49.046;11.920;2023-07-13T12:29:48;0.80;;;0.70;;
60494;SDS011;46342;49.046;11.920;2023-07-13T12:32:17;1.40;;;1.00;;
60494;SDS011;46342;49.046;11.920;2023-07-13T12:34:56;1.25;;;0.90;;
60494;SDS011;46342;49.046;11.920;2023-07-13T12:37:44;1.15;;;0.85;;
60494;SDS011;46342;49.046;11.920;2023-07-13T12:40:32;2.47;;;0.90;;
60494;SDS011;46342;49.046;11.920;2023-07-13T12:42:59;3.65;;;0.82;;
60494;SDS011;46342;49.046;11.920;2023-07-13T12:45:29;1.17;;;0.82;;
60494;SDS011;46342;49.046;11.920;2023-07-13T12:48:02;2.58;;;0.80;;
60494;SDS011;46342;49.046;11.920;2023-07-13T12:50:37;0.80;;;0.80;;
60494;SDS011;46342;49.046;11.920;2023-07-13T12:53:21;1.20;;;0.85;;
60494;SDS011;46342;49.046;11.920;2023-07-13T12:55:53;2.28;;;0.82;;
60494;SDS011;46342;49.046;11.920;2023-07-13T13:01:13;0.88;;;0.68;;
60494;SDS011;46342;49.046;11.920;2023-07-13T13:03:44;2.25;;;0.82;;
60494;SDS011;46342;49.046;11.920;2023-07-13T13:08:40;0.60;;;0.60;;
60494;SDS011;46342;49.046;11.920;2023-07-13T13:11:07;2.72;;;1.00;;
60494;SDS011;46342;49.046;11.920;2023-07-13T13:13:34;2.55;;;1.00;;
60494;SDS011;46342;49.046;11.920;2023-07-13T13:18:46;1.55;;;1.00;;
60494;SDS011;46342;49.046;11.920;2023-07-13T13:21:12;2.05;;;0.95;;
60494;SDS011;46342;49.046;11.920;2023-07-13T13:23:38;1.73;;;0.90;;
60494;SDS011;46342;49.046;11.920;2023-07-13T13:26:07;0.98;;;0.70;;
60494;SDS011;46342;49.046;11.920;2023-07-13T13:28:37;1.70;;;0.88;;
60494;SDS011;46342;49.046;11.920;2023-07-13T13:31:03;1.10;;;0.80;;
60494;SDS011;46342;49.046;11.920;2023-07-13T13:33:28;1.88;;;0.88;;
60494;SDS011;46342;49.046;11.920;2023-07-13T13:35:55;1.33;;;0.90;;
60494;SDS011;46342;49.046;11.920;2023-07-13T13:38:22;0.98;;;0.77;;
60494;SDS011;46342;49.046;11.920;2023-07-13T13:40:50;1.10;;;0.80;;
60494;SDS011;46342;49.046;11.920;2023-07-13T13:43:21;0.85;;;0.80;;
60494;SDS011;46342;49.046;11.920;2023-07-13T13:45:51;0.90;;;0.70;;
60494;SDS011;46342;49.046;11.920;2023-07-13T13:48:27;0.80;;;0.80;;
60494;SDS011;46342;49.046;11.920;2023-07-13T13:50:57;1.70;;;0.98;;
60494;SDS011;46342;49.046;11.920;2023-07-13T13:53:24;1.33;;;0.70;;
60494;SDS011;46342;49.046;11.920;2023-07-13T13:55:50;0.75;;;0.70;;
60494;SDS011;46342;49.046;11.920;2023-07-13T14:00:45;0.60;;;0.60;;
60494;SDS011;46342;49.046;11.920;2023-07-13T14:03:16;1.80;;;0.80;;
60494;SDS011;46342;49.046;11.920;2023-07-13T14:05:44;1.30;;;0.88;;
60494;SDS011;46342;49.046;11.920;2023-07-13T14:08:12;0.70;;;0.70;;
60494;SDS011;46342;49.046;11.920;2023-07-13T14:10:43;1.58;;;0.80;;
60494;SDS011;46342;49.046;11.920;2023-07-13T14:13:25;0.75;;;0.70;;
60494;SDS011;46342;49.046;11.920;2023-07-13T14:16:04;0.80;;;0.70;;
60494;SDS011;46342;49.046;11.920;2023-07-13T14:18:36;1.00;;;0.90;;
60494;SDS011;46342;49.046;11.920;2023-07-13T14:21:02;1.52;;;0.70;;
60494;SDS011;46342;49.046;11.920;2023-07-13T14:23:27;2.30;;;0.80;;
60494;SDS011;46342;49.046;11.920;2023-07-13T14:25:53;0.80;;;0.80;;
60494;SDS011;46342;49.046;11.920;2023-07-13T14:28:26;1.65;;;0.88;;
60494;SDS011;46342;49.046;11.920;2023-07-13T14:30:52;0.65;;;0.60;;
60494;SDS011;46342;49.046;11.920;2023-07-13T14:33:19;0.90;;;0.75;;
60494;SDS011;46342;49.046;11.920;2023-07-13T14:35:45;1.58;;;0.82;;
60494;SDS011;46342;49.046;11.920;2023-07-13T14:38:12;0.98;;;0.70;;
60494;SDS011;46342;49.046;11.920;2023-07-13T14:40:42;2.03;;;0.90;;
60494;SDS011;46342;49.046;11.920;2023-07-13T14:43:14;1.58;;;0.80;;
60494;SDS011;46342;49.046;11.920;2023-07-13T14:45:43;3.40;;;0.90;;
60494;SDS011;46342;49.046;11.920;2023-07-13T14:48:15;1.83;;;0.70;;
60494;SDS011;46342;49.046;11.920;2023-07-13T14:50:43;1.13;;;0.80;;
60494;SDS011;46342;49.046;11.920;2023-07-13T14:53:10;1.77;;;0.65;;
60494;SDS011;46342;49.046;11.920;2023-07-13T14:55:37;0.80;;;0.80;;
60494;SDS011;46342;49.046;11.920;2023-07-13T14:58:03;0.80;;;0.77;;
60494;SDS011;46342;49.046;11.920;2023-07-13T15:00:29;4.13;;;0.70;;
60494;SDS011;46342;49.046;11.920;2023-07-13T15:02:56;2.55;;;1.20;;
60494;SDS011;46342;49.046;11.920;2023-07-13T15:05:25;2.33;;;0.80;;
60494;SDS011;46342;49.046;11.920;2023-07-13T15:07:57;1.30;;;0.80;;
60494;SDS011;46342;49.046;11.920;2023-07-13T15:10:25;2.25;;;0.80;;
60494;SDS011;46342;49.046;11.920;2023-07-13T15:13:00;1.35;;;0.85;;
60494;SDS011;46342;49.046;11.920;2023-07-13T15:15:49;1.27;;;0.98;;
60494;SDS011;46342;49.046;11.920;2023-07-13T15:18:21;0.70;;;0.70;;
60494;SDS011;46342;49.046;11.920;2023-07-13T15:20:48;1.67;;;0.85;;
60494;SDS011;46342;49.046;11.920;2023-07-13T15:23:17;1.33;;;0.85;;
60494;SDS011;46342;49.046;11.920;2023-07-13T15:25:43;2.33;;;0.80;;
60494;SDS011;46342;49.046;11.920;2023-07-13T15:30:41;2.05;;;0.60;;
60494;SDS011;46342;49.046;11.920;2023-07-13T15:33:21;0.60;;;0.60;;
60494;SDS011;46342;49.046;11.920;2023-07-13T15:35:55;0.68;;;0.68;;
60494;SDS011;46342;49.046;11.920;2023-07-13T15:38:25;1.20;;;0.80;;
60494;SDS011;46342;49.046;11.920;2023-07-13T15:40:55;2.20;;;0.90;;
60494;SDS011;46342;49.046;11.920;2023-07-13T15:43:21;1.48;;;0.80;;
60494;SDS011;46342;49.046;11.920;2023-07-13T15:45:47;2.10;;;0.80;;
60494;SDS011;46342;49.046;11.920;2023-07-13T15:50:44;0.80;;;0.80;;